sensor_id;sensor_type;location;lat;lon;timestamp;P1;durP1;ratioP1;P2;durP2;ratioP2
57225;SDS011;43082;43.568;22.256;2023-07-31T00:01:42;11.90;;;5.72;;
57225;SDS011;43082;43.568;22.256;2023-07-31T00:04:07;10.43;;;5.80;;
57225;SDS011;43082;43.568;22.256;2023-07-31T00:06:33;19.90;;;12.82;;
57225;SDS011;43082;43.568;22.256;2023-07-31T00:08:58;22.83;;;12.90;;
57225;SDS011;43082;43.568;22.256;2023-07-31T00:11:24;21.13;;;11.05;;
57225;SDS011;43082;43.568;22.256;2023-07-31T00:13:49;10.82;;;6.20;;
57225;SDS011;43082;43.568;22.256;2023-07-31T00:16:15;12.73;;;5.20;;
57225;SDS011;43082;43.568;22.256;2023-07-31T00:18:40;8.85;;;4.60;;
57225;SDS011;43082;43.568;22.256;2023-07-31T00:21:06;21.85;;;13.90;;
57225;SDS011;43082;43.568;22.256;2023-07-31T00:23:31;16.17;;;9.35;;
57225;SDS011;43082;43.568;22.256;2023-07-31T00:25:56;9.60;;;5.93;;
57225;SDS011;43082;43.568;22.256;2023-07-31T00:28:22;9.02;;;5.28;;
57225;SDS011;43082;43.568;22.256;2023-07-31T00:30:47;10.32;;;5.60;;
57225;SDS011;43082;43.568;22.256;2023-07-31T00:33:13;8.98;;;4.55;;
57225;SDS011;43082;43.568;22.256;2023-07-31T00:35:38;9.70;;;5.55;;
57225;SDS011;43082;43.568;22.256;2023-07-31T00:38:04;9.65;;;5.50;;
57225;SDS011;43082;43.568;22.256;2023-07-31T00:40:29;9.48;;;5.88;;
57225;SDS011;43082;43.568;22.256;2023-07-31T00:42:55;9.70;;;5.18;;
57225;SDS011;43082;43.568;22.256;2023-07-31T00:45:21;9.68;;;5.63;;
57225;SDS011;43082;43.568;22.256;2023-07-31T00:47:48;9.05;;;5.95;;
57225;SDS011;43082;43.568;22.256;2023-07-31T00:50:13;12.50;;;7.07;;
57225;SDS011;43082;43.568;22.256;2023-07-31T00:52:39;9.52;;;7.00;;
57225;SDS011;43082;43.568;22.256;2023-07-31T00:55:05;14.43;;;7.95;;
57225;SDS011;43082;43.568;22.256;2023-07-31T00:57:31;13.25;;;7.25;;
57225;SDS011;43082;43.568;22.256;2023-07-31T00:59:57;10.88;;;8.02;;
57225;SDS011;43082;43.568;22.256;2023-07-31T01:02:23;12.38;;;9.27;;
57225;SDS011;43082;43.568;22.256;2023-07-31T01:04:48;13.23;;;9.52;;
57225;SDS011;43082;43.568;22.256;2023-07-31T01:07:17;11.75;;;8.27;;
57225;SDS011;43082;43.568;22.256;2023-07-31T01:09:45;11.95;;;8.52;;
57225;SDS011;43082;43.568;22.256;2023-07-31T01:12:15;11.20;;;8.63;;
57225;SDS011;43082;43.568;22.256;2023-07-31T01:15:03;11.90;;;9.30;;
57225;SDS011;43082;43.568;22.256;2023-07-31T01:17:28;10.35;;;7.43;;
57225;SDS011;43082;43.568;22.256;2023-07-31T01:19:54;11.73;;;7.88;;
57225;SDS011;43082;43.568;22.256;2023-07-31T01:27:34;11.35;;;5.55;;
57225;SDS011;43082;43.568;22.256;2023-07-31T01:30:08;9.18;;;5.15;;
57225;SDS011;43082;43.568;22.256;2023-07-31T01:32:42;12.65;;;5.70;;
57225;SDS011;43082;43.568;22.256;2023-07-31T01:35:08;10.90;;;5.22;;
57225;SDS011;43082;43.568;22.256;2023-07-31T01:37:35;8.77;;;5.80;;
57225;SDS011;43082;43.568;22.256;2023-07-31T01:40:00;10.82;;;5.38;;
57225;SDS011;43082;43.568;22.256;2023-07-31T01:42:26;7.90;;;5.50;;
57225;SDS011;43082;43.568;22.256;2023-07-31T01:44:51;11.70;;;6.30;;
57225;SDS011;43082;43.568;22.256;2023-07-31T01:47:17;12.80;;;6.10;;
57225;SDS011;43082;43.568;22.256;2023-07-31T01:49:42;9.00;;;5.13;;
57225;SDS011;43082;43.568;22.256;2023-07-31T01:52:08;7.95;;;4.95;;
57225;SDS011;43082;43.568;22.256;2023-07-31T01:54:33;10.85;;;5.20;;
57225;SDS011;43082;43.568;22.256;2023-07-31T01:56:59;10.23;;;5.63;;
57225;SDS011;43082;43.568;22.256;2023-07-31T01:59:24;11.18;;;6.22;;
57225;SDS011;43082;43.568;22.256;2023-07-31T02:01:50;15.30;;;7.40;;
57225;SDS011;43082;43.568;22.256;2023-07-31T02:04:15;13.18;;;7.95;;
57225;SDS011;43082;43.568;22.256;2023-07-31T02:06:41;11.02;;;8.45;;
57225;SDS011;43082;43.568;22.256;2023-07-31T02:09:06;11.75;;;9.25;;
57225;SDS011;43082;43.568;22.256;2023-07-31T02:11:31;12.20;;;9.48;;
57225;SDS011;43082;43.568;22.256;2023-07-31T02:13:57;13.98;;;9.50;;
57225;SDS011;43082;43.568;22.256;2023-07-31T02:16:22;14.57;;;9.05;;
57225;SDS011;43082;43.568;22.256;2023-07-31T02:18:48;13.43;;;9.00;;
57225;SDS011;43082;43.568;22.256;2023-07-31T02:21:13;13.23;;;9.40;;
57225;SDS011;43082;43.568;22.256;2023-07-31T02:23:39;12.52;;;8.48;;
57225;SDS011;43082;43.568;22.256;2023-07-31T02:26:04;14.68;;;9.25;;
57225;SDS011;43082;43.568;22.256;2023-07-31T02:28:29;13.70;;;9.45;;
57225;SDS011;43082;43.568;22.256;2023-07-31T02:30:55;11.73;;;9.00;;
57225;SDS011;43082;43.568;22.256;2023-07-31T02:33:21;12.13;;;9.70;;
57225;SDS011;43082;43.568;22.256;2023-07-31T02:35:46;10.80;;;8.73;;
57225;SDS011;43082;43.568;22.256;2023-07-31T02:38:12;15.50;;;9.73;;
57225;SDS011;43082;43.568;22.256;2023-07-31T02:40:37;11.85;;;9.52;;
57225;SDS011;43082;43.568;22.256;2023-07-31T02:43:04;11.07;;;8.77;;
57225;SDS011;43082;43.568;22.256;2023-07-31T02:45:30;13.05;;;8.57;;
57225;SDS011;43082;43.568;22.256;2023-07-31T02:47:55;14.13;;;9.73;;
57225;SDS011;43082;43.568;22.256;2023-07-31T02:50:20;11.80;;;8.60;;
57225;SDS011;43082;43.568;22.256;2023-07-31T02:52:46;13.02;;;8.57;;
57225;SDS011;43082;43.568;22.256;2023-07-31T02:55:11;10.40;;;7.03;;
57225;SDS011;43082;43.568;22.256;2023-07-31T02:57:37;11.70;;;6.97;;
57225;SDS011;43082;43.568;22.256;2023-07-31T03:00:02;10.20;;;7.80;;
57225;SDS011;43082;43.568;22.256;2023-07-31T03:02:31;10.27;;;7.53;;
57225;SDS011;43082;43.568;22.256;2023-07-31T03:04:56;10.60;;;6.72;;
57225;SDS011;43082;43.568;22.256;2023-07-31T03:07:22;9.43;;;6.82;;
57225;SDS011;43082;43.568;22.256;2023-07-31T03:09:47;11.10;;;6.85;;
57225;SDS011;43082;43.568;22.256;2023-07-31T03:12:13;10.15;;;6.53;;
57225;SDS011;43082;43.568;22.256;2023-07-31T03:14:38;9.20;;;6.30;;
57225;SDS011;43082;43.568;22.256;2023-07-31T03:17:03;8.73;;;5.50;;
57225;SDS011;43082;43.568;22.256;2023-07-31T03:19:32;10.40;;;6.20;;
57225;SDS011;43082;43.568;22.256;2023-07-31T03:21:58;10.40;;;5.85;;
57225;SDS011;43082;43.568;22.256;2023-07-31T03:24:24;7.25;;;5.40;;
57225;SDS011;43082;43.568;22.256;2023-07-31T03:26:50;8.85;;;5.50;;
57225;SDS011;43082;43.568;22.256;2023-07-31T03:29:15;8.07;;;5.43;;
57225;SDS011;43082;43.568;22.256;2023-07-31T03:31:41;6.85;;;4.70;;
57225;SDS011;43082;43.568;22.256;2023-07-31T03:34:06;8.75;;;6.00;;
57225;SDS011;43082;43.568;22.256;2023-07-31T03:36:32;10.63;;;5.80;;
57225;SDS011;43082;43.568;22.256;2023-07-31T03:38:57;8.30;;;5.15;;
57225;SDS011;43082;43.568;22.256;2023-07-31T03:41:23;9.05;;;5.53;;
57225;SDS011;43082;43.568;22.256;2023-07-31T03:43:49;9.77;;;4.95;;
57225;SDS011;43082;43.568;22.256;2023-07-31T03:46:21;8.38;;;4.93;;
57225;SDS011;43082;43.568;22.256;2023-07-31T03:48:47;7.22;;;5.20;;
57225;SDS011;43082;43.568;22.256;2023-07-31T03:51:12;8.52;;;4.68;;
57225;SDS011;43082;43.568;22.256;2023-07-31T03:53:38;8.32;;;4.88;;
57225;SDS011;43082;43.568;22.256;2023-07-31T03:56:04;11.13;;;4.80;;
57225;SDS011;43082;43.568;22.256;2023-07-31T03:58:29;7.95;;;5.10;;
57225;SDS011;43082;43.568;22.256;2023-07-31T04:00:55;11.00;;;4.65;;
57225;SDS011;43082;43.568;22.256;2023-07-31T04:03:20;7.28;;;4.60;;
57225;SDS011;43082;43.568;22.256;2023-07-31T04:05:46;8.35;;;4.22;;
57225;SDS011;43082;43.568;22.256;2023-07-31T04:08:11;8.77;;;4.50;;
57225;SDS011;43082;43.568;22.256;2023-07-31T04:10:36;9.15;;;4.13;;
57225;SDS011;43082;43.568;22.256;2023-07-31T04:13:02;10.70;;;4.28;;
57225;SDS011;43082;43.568;22.256;2023-07-31T04:15:27;18.73;;;11.75;;
57225;SDS011;43082;43.568;22.256;2023-07-31T04:17:53;8.93;;;4.20;;
57225;SDS011;43082;43.568;22.256;2023-07-31T04:20:18;12.07;;;4.45;;
57225;SDS011;43082;43.568;22.256;2023-07-31T04:22:44;8.55;;;4.28;;
57225;SDS011;43082;43.568;22.256;2023-07-31T04:25:09;6.47;;;4.00;;
57225;SDS011;43082;43.568;22.256;2023-07-31T04:27:35;7.93;;;4.18;;
57225;SDS011;43082;43.568;22.256;2023-07-31T04:30:00;9.10;;;3.72;;
57225;SDS011;43082;43.568;22.256;2023-07-31T04:32:25;9.40;;;3.75;;
57225;SDS011;43082;43.568;22.256;2023-07-31T04:34:51;8.23;;;4.18;;
57225;SDS011;43082;43.568;22.256;2023-07-31T04:37:16;8.27;;;3.95;;
57225;SDS011;43082;43.568;22.256;2023-07-31T04:39:43;7.40;;;3.60;;
57225;SDS011;43082;43.568;22.256;2023-07-31T04:42:08;7.15;;;3.55;;
57225;SDS011;43082;43.568;22.256;2023-07-31T04:44:35;7.00;;;3.70;;
57225;SDS011;43082;43.568;22.256;2023-07-31T04:47:00;8.18;;;3.97;;
57225;SDS011;43082;43.568;22.256;2023-07-31T04:49:27;10.10;;;3.55;;
57225;SDS011;43082;43.568;22.256;2023-07-31T04:51:52;11.07;;;4.00;;
57225;SDS011;43082;43.568;22.256;2023-07-31T04:54:17;9.73;;;3.88;;
57225;SDS011;43082;43.568;22.256;2023-07-31T04:56:43;4.97;;;2.40;;
57225;SDS011;43082;43.568;22.256;2023-07-31T04:59:08;7.90;;;3.00;;
57225;SDS011;43082;43.568;22.256;2023-07-31T05:01:34;7.85;;;2.92;;
57225;SDS011;43082;43.568;22.256;2023-07-31T05:03:59;6.03;;;3.10;;
57225;SDS011;43082;43.568;22.256;2023-07-31T05:06:25;9.65;;;3.45;;
57225;SDS011;43082;43.568;22.256;2023-07-31T05:08:50;10.07;;;3.25;;
57225;SDS011;43082;43.568;22.256;2023-07-31T05:11:16;12.10;;;3.65;;
57225;SDS011;43082;43.568;22.256;2023-07-31T05:13:41;7.72;;;3.45;;
57225;SDS011;43082;43.568;22.256;2023-07-31T05:16:07;7.40;;;3.15;;
57225;SDS011;43082;43.568;22.256;2023-07-31T05:18:32;7.28;;;3.50;;
57225;SDS011;43082;43.568;22.256;2023-07-31T05:20:58;7.25;;;2.95;;
57225;SDS011;43082;43.568;22.256;2023-07-31T05:23:23;8.15;;;3.33;;
57225;SDS011;43082;43.568;22.256;2023-07-31T05:25:48;8.65;;;3.53;;
57225;SDS011;43082;43.568;22.256;2023-07-31T05:28:14;10.32;;;3.40;;
57225;SDS011;43082;43.568;22.256;2023-07-31T05:30:39;6.20;;;2.90;;
57225;SDS011;43082;43.568;22.256;2023-07-31T05:33:05;7.65;;;3.30;;
57225;SDS011;43082;43.568;22.256;2023-07-31T05:35:30;9.05;;;3.17;;
57225;SDS011;43082;43.568;22.256;2023-07-31T05:37:56;6.18;;;3.03;;
57225;SDS011;43082;43.568;22.256;2023-07-31T05:40:21;7.38;;;3.17;;
57225;SDS011;43082;43.568;22.256;2023-07-31T05:42:47;5.75;;;3.03;;
57225;SDS011;43082;43.568;22.256;2023-07-31T05:45:12;6.65;;;3.15;;
57225;SDS011;43082;43.568;22.256;2023-07-31T05:47:38;8.10;;;3.50;;
57225;SDS011;43082;43.568;22.256;2023-07-31T05:50:04;6.85;;;3.10;;
57225;SDS011;43082;43.568;22.256;2023-07-31T05:52:30;7.05;;;2.83;;
57225;SDS011;43082;43.568;22.256;2023-07-31T05:54:55;8.90;;;3.20;;
57225;SDS011;43082;43.568;22.256;2023-07-31T05:57:21;6.15;;;3.40;;
57225;SDS011;43082;43.568;22.256;2023-07-31T05:59:46;6.22;;;2.95;;
57225;SDS011;43082;43.568;22.256;2023-07-31T06:02:12;7.10;;;3.47;;
57225;SDS011;43082;43.568;22.256;2023-07-31T06:04:38;7.00;;;3.10;;
57225;SDS011;43082;43.568;22.256;2023-07-31T06:07:03;7.03;;;3.33;;
57225;SDS011;43082;43.568;22.256;2023-07-31T06:09:29;7.47;;;3.42;;
57225;SDS011;43082;43.568;22.256;2023-07-31T06:11:54;6.38;;;3.10;;
57225;SDS011;43082;43.568;22.256;2023-07-31T06:14:20;7.05;;;3.17;;
57225;SDS011;43082;43.568;22.256;2023-07-31T06:16:45;7.60;;;3.03;;
57225;SDS011;43082;43.568;22.256;2023-07-31T06:19:11;6.95;;;2.83;;
57225;SDS011;43082;43.568;22.256;2023-07-31T06:21:36;9.27;;;2.90;;
57225;SDS011;43082;43.568;22.256;2023-07-31T06:24:03;7.13;;;3.15;;
57225;SDS011;43082;43.568;22.256;2023-07-31T06:26:29;7.95;;;2.63;;
57225;SDS011;43082;43.568;22.256;2023-07-31T06:28:54;6.15;;;2.60;;
57225;SDS011;43082;43.568;22.256;2023-07-31T06:31:19;7.85;;;2.95;;
57225;SDS011;43082;43.568;22.256;2023-07-31T06:33:48;9.52;;;3.05;;
57225;SDS011;43082;43.568;22.256;2023-07-31T06:36:14;6.78;;;2.60;;
57225;SDS011;43082;43.568;22.256;2023-07-31T06:38:39;7.97;;;2.70;;
57225;SDS011;43082;43.568;22.256;2023-07-31T06:41:05;4.68;;;2.28;;
57225;SDS011;43082;43.568;22.256;2023-07-31T06:43:30;7.90;;;2.60;;
57225;SDS011;43082;43.568;22.256;2023-07-31T06:45:56;5.13;;;2.30;;
57225;SDS011;43082;43.568;22.256;2023-07-31T06:48:21;6.35;;;2.40;;
57225;SDS011;43082;43.568;22.256;2023-07-31T06:50:47;5.25;;;2.40;;
57225;SDS011;43082;43.568;22.256;2023-07-31T06:53:12;5.07;;;2.50;;
57225;SDS011;43082;43.568;22.256;2023-07-31T06:55:38;5.55;;;2.40;;
57225;SDS011;43082;43.568;22.256;2023-07-31T06:58:03;5.25;;;2.30;;
57225;SDS011;43082;43.568;22.256;2023-07-31T07:00:29;6.15;;;2.72;;
57225;SDS011;43082;43.568;22.256;2023-07-31T07:02:54;6.05;;;2.50;;
57225;SDS011;43082;43.568;22.256;2023-07-31T07:05:19;6.45;;;2.53;;
57225;SDS011;43082;43.568;22.256;2023-07-31T07:07:45;5.70;;;2.40;;
57225;SDS011;43082;43.568;22.256;2023-07-31T07:10:11;5.95;;;2.78;;
57225;SDS011;43082;43.568;22.256;2023-07-31T07:12:36;6.43;;;2.70;;
57225;SDS011;43082;43.568;22.256;2023-07-31T07:15:02;6.25;;;2.55;;
57225;SDS011;43082;43.568;22.256;2023-07-31T07:17:28;5.85;;;2.72;;
57225;SDS011;43082;43.568;22.256;2023-07-31T07:19:56;6.03;;;2.58;;
57225;SDS011;43082;43.568;22.256;2023-07-31T07:22:22;6.80;;;2.58;;
57225;SDS011;43082;43.568;22.256;2023-07-31T07:24:47;6.05;;;2.60;;
57225;SDS011;43082;43.568;22.256;2023-07-31T07:27:13;5.70;;;2.55;;
57225;SDS011;43082;43.568;22.256;2023-07-31T07:29:38;6.72;;;2.45;;
57225;SDS011;43082;43.568;22.256;2023-07-31T07:32:04;5.15;;;2.35;;
57225;SDS011;43082;43.568;22.256;2023-07-31T07:34:30;5.88;;;2.65;;
57225;SDS011;43082;43.568;22.256;2023-07-31T07:36:55;4.82;;;2.15;;
57225;SDS011;43082;43.568;22.256;2023-07-31T07:39:21;5.72;;;2.88;;
57225;SDS011;43082;43.568;22.256;2023-07-31T07:41:46;5.63;;;2.70;;
57225;SDS011;43082;43.568;22.256;2023-07-31T07:44:12;5.70;;;2.92;;
57225;SDS011;43082;43.568;22.256;2023-07-31T07:46:38;7.63;;;3.08;;
57225;SDS011;43082;43.568;22.256;2023-07-31T07:49:04;7.43;;;3.60;;
57225;SDS011;43082;43.568;22.256;2023-07-31T07:51:29;5.72;;;3.10;;
57225;SDS011;43082;43.568;22.256;2023-07-31T07:53:56;7.95;;;3.85;;
57225;SDS011;43082;43.568;22.256;2023-07-31T07:56:25;7.20;;;4.45;;
57225;SDS011;43082;43.568;22.256;2023-07-31T07:58:51;8.25;;;4.07;;
57225;SDS011;43082;43.568;22.256;2023-07-31T08:01:17;8.70;;;4.55;;
57225;SDS011;43082;43.568;22.256;2023-07-31T08:03:42;6.95;;;4.20;;
57225;SDS011;43082;43.568;22.256;2023-07-31T08:06:08;7.30;;;4.90;;
57225;SDS011;43082;43.568;22.256;2023-07-31T08:08:34;6.88;;;4.88;;
57225;SDS011;43082;43.568;22.256;2023-07-31T08:11:00;8.02;;;5.32;;
57225;SDS011;43082;43.568;22.256;2023-07-31T08:13:26;8.40;;;5.05;;
57225;SDS011;43082;43.568;22.256;2023-07-31T08:15:51;7.53;;;4.85;;
57225;SDS011;43082;43.568;22.256;2023-07-31T08:18:17;9.95;;;5.50;;
57225;SDS011;43082;43.568;22.256;2023-07-31T08:20:42;6.95;;;5.28;;
57225;SDS011;43082;43.568;22.256;2023-07-31T08:23:08;7.40;;;5.22;;
57225;SDS011;43082;43.568;22.256;2023-07-31T08:25:37;8.85;;;4.85;;
57225;SDS011;43082;43.568;22.256;2023-07-31T08:28:02;9.02;;;6.38;;
57225;SDS011;43082;43.568;22.256;2023-07-31T08:30:29;12.52;;;7.13;;
57225;SDS011;43082;43.568;22.256;2023-07-31T08:32:54;11.18;;;8.05;;
57225;SDS011;43082;43.568;22.256;2023-07-31T08:35:20;9.80;;;8.55;;
57225;SDS011;43082;43.568;22.256;2023-07-31T08:37:45;12.57;;;8.25;;
57225;SDS011;43082;43.568;22.256;2023-07-31T08:40:11;12.60;;;9.57;;
57225;SDS011;43082;43.568;22.256;2023-07-31T08:42:45;11.05;;;9.15;;
57225;SDS011;43082;43.568;22.256;2023-07-31T08:45:15;10.77;;;9.27;;
57225;SDS011;43082;43.568;22.256;2023-07-31T08:47:48;12.55;;;8.63;;
57225;SDS011;43082;43.568;22.256;2023-07-31T08:50:15;9.95;;;8.48;;
57225;SDS011;43082;43.568;22.256;2023-07-31T08:52:42;9.77;;;8.77;;
57225;SDS011;43082;43.568;22.256;2023-07-31T08:55:08;10.90;;;8.38;;
57225;SDS011;43082;43.568;22.256;2023-07-31T08:57:36;11.45;;;8.20;;
57225;SDS011;43082;43.568;22.256;2023-07-31T09:00:03;10.95;;;7.75;;
57225;SDS011;43082;43.568;22.256;2023-07-31T09:02:34;9.88;;;7.22;;
57225;SDS011;43082;43.568;22.256;2023-07-31T09:05:11;11.77;;;7.32;;
57225;SDS011;43082;43.568;22.256;2023-07-31T09:07:37;10.32;;;6.47;;
57225;SDS011;43082;43.568;22.256;2023-07-31T09:10:03;9.48;;;5.80;;
57225;SDS011;43082;43.568;22.256;2023-07-31T09:12:29;8.57;;;6.40;;
57225;SDS011;43082;43.568;22.256;2023-07-31T09:14:56;9.27;;;6.47;;
57225;SDS011;43082;43.568;22.256;2023-07-31T09:17:29;8.88;;;6.18;;
57225;SDS011;43082;43.568;22.256;2023-07-31T09:20:11;7.95;;;6.40;;
57225;SDS011;43082;43.568;22.256;2023-07-31T09:22:39;8.75;;;5.65;;
57225;SDS011;43082;43.568;22.256;2023-07-31T09:25:17;8.43;;;5.82;;
57225;SDS011;43082;43.568;22.256;2023-07-31T09:27:50;8.48;;;5.82;;
57225;SDS011;43082;43.568;22.256;2023-07-31T09:30:16;9.40;;;5.97;;
57225;SDS011;43082;43.568;22.256;2023-07-31T09:32:43;8.82;;;5.95;;
57225;SDS011;43082;43.568;22.256;2023-07-31T09:35:19;7.95;;;5.40;;
57225;SDS011;43082;43.568;22.256;2023-07-31T09:37:52;7.75;;;5.88;;
57225;SDS011;43082;43.568;22.256;2023-07-31T09:40:25;7.55;;;5.10;;
57225;SDS011;43082;43.568;22.256;2023-07-31T09:42:52;7.43;;;4.93;;
57225;SDS011;43082;43.568;22.256;2023-07-31T09:45:18;7.65;;;5.50;;
57225;SDS011;43082;43.568;22.256;2023-07-31T09:47:47;7.75;;;4.80;;
57225;SDS011;43082;43.568;22.256;2023-07-31T09:50:15;6.47;;;4.38;;
57225;SDS011;43082;43.568;22.256;2023-07-31T09:52:41;6.95;;;4.50;;
57225;SDS011;43082;43.568;22.256;2023-07-31T09:55:07;7.60;;;4.65;;
57225;SDS011;43082;43.568;22.256;2023-07-31T09:57:33;7.38;;;4.72;;
57225;SDS011;43082;43.568;22.256;2023-07-31T09:59:59;8.52;;;4.30;;
57225;SDS011;43082;43.568;22.256;2023-07-31T10:02:25;7.03;;;4.47;;
57225;SDS011;43082;43.568;22.256;2023-07-31T10:04:51;7.38;;;4.32;;
57225;SDS011;43082;43.568;22.256;2023-07-31T10:07:19;8.25;;;4.38;;
57225;SDS011;43082;43.568;22.256;2023-07-31T10:09:45;8.43;;;4.40;;
57225;SDS011;43082;43.568;22.256;2023-07-31T10:12:12;7.30;;;4.28;;
57225;SDS011;43082;43.568;22.256;2023-07-31T10:14:37;6.53;;;4.00;;
57225;SDS011;43082;43.568;22.256;2023-07-31T10:17:04;8.68;;;4.30;;
57225;SDS011;43082;43.568;22.256;2023-07-31T10:19:31;6.22;;;4.07;;
57225;SDS011;43082;43.568;22.256;2023-07-31T10:21:56;8.52;;;3.88;;
57225;SDS011;43082;43.568;22.256;2023-07-31T10:24:24;5.75;;;3.08;;
57225;SDS011;43082;43.568;22.256;2023-07-31T10:26:50;5.00;;;2.65;;
57225;SDS011;43082;43.568;22.256;2023-07-31T10:29:17;5.15;;;2.40;;
57225;SDS011;43082;43.568;22.256;2023-07-31T10:31:43;4.43;;;2.05;;
57225;SDS011;43082;43.568;22.256;2023-07-31T10:34:09;4.25;;;2.00;;
57225;SDS011;43082;43.568;22.256;2023-07-31T10:36:35;4.78;;;2.17;;
57225;SDS011;43082;43.568;22.256;2023-07-31T10:39:00;5.70;;;2.85;;
57225;SDS011;43082;43.568;22.256;2023-07-31T10:41:29;7.30;;;3.40;;
57225;SDS011;43082;43.568;22.256;2023-07-31T10:43:59;11.38;;;3.88;;
57225;SDS011;43082;43.568;22.256;2023-07-31T10:46:25;6.22;;;3.50;;
57225;SDS011;43082;43.568;22.256;2023-07-31T10:49:00;7.85;;;3.60;;
57225;SDS011;43082;43.568;22.256;2023-07-31T10:51:32;5.80;;;3.47;;
57225;SDS011;43082;43.568;22.256;2023-07-31T10:54:10;6.70;;;3.58;;
57225;SDS011;43082;43.568;22.256;2023-07-31T10:56:39;7.25;;;3.08;;
57225;SDS011;43082;43.568;22.256;2023-07-31T10:59:04;6.25;;;2.85;;
57225;SDS011;43082;43.568;22.256;2023-07-31T11:01:50;5.10;;;2.40;;
57225;SDS011;43082;43.568;22.256;2023-07-31T11:04:23;5.65;;;2.85;;
57225;SDS011;43082;43.568;22.256;2023-07-31T11:06:59;5.85;;;2.60;;
57225;SDS011;43082;43.568;22.256;2023-07-31T11:09:29;5.15;;;2.60;;
57225;SDS011;43082;43.568;22.256;2023-07-31T11:11:56;7.85;;;2.60;;
57225;SDS011;43082;43.568;22.256;2023-07-31T11:14:22;4.55;;;2.30;;
57225;SDS011;43082;43.568;22.256;2023-07-31T11:16:51;6.95;;;2.70;;
57225;SDS011;43082;43.568;22.256;2023-07-31T11:19:23;5.88;;;2.30;;
57225;SDS011;43082;43.568;22.256;2023-07-31T11:21:49;5.13;;;2.30;;
57225;SDS011;43082;43.568;22.256;2023-07-31T11:24:14;5.82;;;2.38;;
57225;SDS011;43082;43.568;22.256;2023-07-31T11:26:47;5.40;;;2.33;;
57225;SDS011;43082;43.568;22.256;2023-07-31T11:29:14;7.78;;;2.28;;
57225;SDS011;43082;43.568;22.256;2023-07-31T11:31:43;5.80;;;2.33;;
57225;SDS011;43082;43.568;22.256;2023-07-31T11:34:09;6.60;;;2.15;;
57225;SDS011;43082;43.568;22.256;2023-07-31T11:36:35;7.47;;;2.30;;
57225;SDS011;43082;43.568;22.256;2023-07-31T11:39:10;5.40;;;2.10;;
57225;SDS011;43082;43.568;22.256;2023-07-31T11:41:35;4.65;;;1.90;;
57225;SDS011;43082;43.568;22.256;2023-07-31T11:44:01;4.30;;;1.83;;
57225;SDS011;43082;43.568;22.256;2023-07-31T11:46:28;4.57;;;1.70;;
57225;SDS011;43082;43.568;22.256;2023-07-31T11:48:59;4.28;;;1.98;;
57225;SDS011;43082;43.568;22.256;2023-07-31T11:51:25;5.72;;;1.80;;
57225;SDS011;43082;43.568;22.256;2023-07-31T11:53:51;6.75;;;2.03;;
57225;SDS011;43082;43.568;22.256;2023-07-31T11:56:19;7.90;;;1.85;;
57225;SDS011;43082;43.568;22.256;2023-07-31T11:58:46;5.53;;;2.10;;
57225;SDS011;43082;43.568;22.256;2023-07-31T12:01:16;4.22;;;1.83;;
57225;SDS011;43082;43.568;22.256;2023-07-31T12:03:44;4.32;;;1.80;;
57225;SDS011;43082;43.568;22.256;2023-07-31T12:06:10;4.50;;;1.70;;
57225;SDS011;43082;43.568;22.256;2023-07-31T12:08:36;6.43;;;2.05;;
57225;SDS011;43082;43.568;22.256;2023-07-31T12:11:02;5.85;;;2.00;;
57225;SDS011;43082;43.568;22.256;2023-07-31T12:13:28;7.93;;;1.85;;
57225;SDS011;43082;43.568;22.256;2023-07-31T12:15:56;5.82;;;1.88;;
57225;SDS011;43082;43.568;22.256;2023-07-31T12:18:24;5.15;;;1.85;;
57225;SDS011;43082;43.568;22.256;2023-07-31T12:20:54;8.07;;;1.88;;
57225;SDS011;43082;43.568;22.256;2023-07-31T12:23:28;5.82;;;2.47;;
57225;SDS011;43082;43.568;22.256;2023-07-31T12:26:01;7.53;;;1.80;;
57225;SDS011;43082;43.568;22.256;2023-07-31T12:28:45;4.28;;;1.50;;
57225;SDS011;43082;43.568;22.256;2023-07-31T12:31:21;5.30;;;1.65;;
57225;SDS011;43082;43.568;22.256;2023-07-31T12:33:47;3.60;;;1.65;;
57225;SDS011;43082;43.568;22.256;2023-07-31T12:36:15;4.57;;;2.00;;
57225;SDS011;43082;43.568;22.256;2023-07-31T12:38:50;3.97;;;1.50;;
57225;SDS011;43082;43.568;22.256;2023-07-31T12:41:16;6.03;;;1.90;;
57225;SDS011;43082;43.568;22.256;2023-07-31T12:43:43;3.55;;;1.60;;
57225;SDS011;43082;43.568;22.256;2023-07-31T12:46:09;3.90;;;1.60;;
57225;SDS011;43082;43.568;22.256;2023-07-31T12:48:35;4.88;;;1.70;;
57225;SDS011;43082;43.568;22.256;2023-07-31T12:51:02;4.97;;;1.98;;
57225;SDS011;43082;43.568;22.256;2023-07-31T12:53:28;4.55;;;1.60;;
57225;SDS011;43082;43.568;22.256;2023-07-31T12:55:54;3.80;;;1.70;;
57225;SDS011;43082;43.568;22.256;2023-07-31T12:58:20;5.40;;;1.73;;
57225;SDS011;43082;43.568;22.256;2023-07-31T13:00:46;6.07;;;1.60;;
57225;SDS011;43082;43.568;22.256;2023-07-31T13:03:11;7.72;;;1.85;;
57225;SDS011;43082;43.568;22.256;2023-07-31T13:05:37;5.22;;;2.03;;
57225;SDS011;43082;43.568;22.256;2023-07-31T13:08:02;4.60;;;1.50;;
57225;SDS011;43082;43.568;22.256;2023-07-31T13:10:28;8.90;;;1.98;;
57225;SDS011;43082;43.568;22.256;2023-07-31T13:12:54;9.35;;;2.50;;
57225;SDS011;43082;43.568;22.256;2023-07-31T13:15:20;7.32;;;2.13;;
57225;SDS011;43082;43.568;22.256;2023-07-31T13:17:46;6.07;;;2.60;;
57225;SDS011;43082;43.568;22.256;2023-07-31T13:20:12;3.70;;;1.50;;
57225;SDS011;43082;43.568;22.256;2023-07-31T13:22:37;10.75;;;2.03;;
57225;SDS011;43082;43.568;22.256;2023-07-31T13:25:03;5.20;;;1.60;;
57225;SDS011;43082;43.568;22.256;2023-07-31T13:27:28;6.40;;;1.48;;
57225;SDS011;43082;43.568;22.256;2023-07-31T13:29:54;5.55;;;1.60;;
57225;SDS011;43082;43.568;22.256;2023-07-31T13:32:20;3.90;;;1.38;;
57225;SDS011;43082;43.568;22.256;2023-07-31T13:34:46;5.75;;;1.63;;
57225;SDS011;43082;43.568;22.256;2023-07-31T13:37:12;4.78;;;1.77;;
57225;SDS011;43082;43.568;22.256;2023-07-31T13:39:38;5.82;;;2.03;;
57225;SDS011;43082;43.568;22.256;2023-07-31T13:42:04;4.30;;;1.75;;
57225;SDS011;43082;43.568;22.256;2023-07-31T13:44:33;4.07;;;1.55;;
57225;SDS011;43082;43.568;22.256;2023-07-31T13:47:06;4.22;;;1.85;;
57225;SDS011;43082;43.568;22.256;2023-07-31T13:49:32;3.55;;;1.48;;
57225;SDS011;43082;43.568;22.256;2023-07-31T13:51:58;4.15;;;1.67;;
57225;SDS011;43082;43.568;22.256;2023-07-31T13:54:23;4.30;;;1.52;;
57225;SDS011;43082;43.568;22.256;2023-07-31T13:56:50;5.40;;;1.70;;
57225;SDS011;43082;43.568;22.256;2023-07-31T13:59:16;4.10;;;1.60;;
57225;SDS011;43082;43.568;22.256;2023-07-31T14:01:42;3.58;;;1.40;;
57225;SDS011;43082;43.568;22.256;2023-07-31T14:04:08;5.90;;;1.67;;
57225;SDS011;43082;43.568;22.256;2023-07-31T14:06:33;3.50;;;1.38;;
57225;SDS011;43082;43.568;22.256;2023-07-31T14:08:59;4.65;;;1.60;;
57225;SDS011;43082;43.568;22.256;2023-07-31T14:11:24;3.33;;;1.30;;
57225;SDS011;43082;43.568;22.256;2023-07-31T14:13:50;3.83;;;1.60;;
57225;SDS011;43082;43.568;22.256;2023-07-31T14:16:16;3.85;;;1.60;;
57225;SDS011;43082;43.568;22.256;2023-07-31T14:18:42;3.80;;;1.65;;
57225;SDS011;43082;43.568;22.256;2023-07-31T14:21:07;4.90;;;1.70;;
57225;SDS011;43082;43.568;22.256;2023-07-31T14:23:33;3.47;;;1.40;;
57225;SDS011;43082;43.568;22.256;2023-07-31T14:25:59;3.75;;;1.50;;
57225;SDS011;43082;43.568;22.256;2023-07-31T14:28:24;4.55;;;1.70;;
57225;SDS011;43082;43.568;22.256;2023-07-31T14:30:49;4.47;;;1.55;;
57225;SDS011;43082;43.568;22.256;2023-07-31T14:33:15;3.65;;;1.50;;